Time;durP1;ratioP1;P1;durP2;ratioP2;P2;SDS_P1;SDS_P2;PMS_P1;PMS_P2;Temp;Humidity;BMP_temperature;BMP_pressure;BME280_temperature;BME280_humidity;BME280_pressure;Samples;Min_cycle;Max_cycle;Signal;HPM_P1;HPM_P2
2022/08/18 00:01:12;;;;;;;9.38;6.05;;;16.60;99.90;;;;;;5089561;28;20043;-71
2022/08/18 00:03:40;;;;;;;8.95;6.28;;;16.50;99.90;;;;;;5077839;28;20044;-69
2022/08/18 00:06:06;;;;;;;9.85;6.28;;;16.60;99.90;;;;;;5089624;28;20040;-69
2022/08/18 00:08:32;;;;;;;10.05;7.03;;;16.60;99.90;;;;;;5083474;28;20063;-71
2022/08/18 00:10:58;;;;;;;8.13;6.05;;;16.40;99.90;;;;;;5082665;28;20151;-71
2022/08/18 00:13:24;;;;;;;9.65;6.40;;;16.30;99.90;;;;;;5091725;28;20031;-71
2022/08/18 00:15:50;;;;;;;7.68;5.80;;;16.20;99.90;;;;;;5078649;28;20050;-70
2022/08/18 00:18:16;;;;;;;9.20;5.93;;;16.10;99.90;;;;;;5088890;28;20037;-67
2022/08/18 00:20:42;;;;;;;10.05;5.97;;;16.10;99.90;;;;;;5084007;28;20050;-71
2022/08/18 00:23:08;;;;;;;11.55;6.22;;;16.20;99.90;;;;;;5078606;28;20498;-71
2022/08/18 00:25:34;;;;;;;9.00;5.70;;;16.10;99.90;;;;;;5087393;28;20133;-71
2022/08/18 00:28:00;;;;;;;10.02;6.03;;;16.00;99.90;;;;;;5076542;28;20044;-69
2022/08/18 00:30:26;;;;;;;12.52;6.60;;;15.80;99.90;;;;;;5085476;28;20064;-71
2022/08/18 00:32:56;;;;;;;10.85;6.53;;;15.80;99.90;;;;;;5084649;28;20380;-71
2022/08/18 00:35:26;;;;;;;10.15;6.75;;;15.90;99.90;;;;;;5077023;28;20044;-70
2022/08/18 00:37:53;;;;;;;9.38;6.00;;;15.90;99.90;;;;;;5089055;28;20045;-70
2022/08/18 00:40:24;;;;;;;9.50;6.05;;;15.90;99.90;;;;;;5080796;28;20575;-68
2022/08/18 00:42:54;;;;;;;9.20;6.38;;;15.90;99.90;;;;;;5084463;28;20036;-67
2022/08/18 00:45:24;;;;;;;7.57;5.68;;;16.10;99.90;;;;;;5090891;28;20055;-70
2022/08/18 00:47:50;;;;;;;7.70;5.75;;;16.20;99.90;;;;;;5078839;28;20048;-68
2022/08/18 00:50:33;;;;;;;8.77;5.72;;;16.30;99.90;;;;;;5088941;28;20064;-70
2022/08/18 00:53:07;;;;;;;8.40;5.60;;;16.30;99.90;;;;;;5086231;28;20123;-71
2022/08/18 00:55:34;;;;;;;7.75;4.97;;;16.20;99.90;;;;;;5076688;28;20075;-71
2022/08/18 00:58:10;;;;;;;6.65;4.80;;;16.20;99.90;;;;;;5089256;28;20110;-67
2022/08/18 01:00:37;;;;;;;6.50;4.82;;;16.20;99.90;;;;;;5083547;28;20067;-70
2022/08/18 01:03:11;;;;;;;6.63;4.97;;;16.10;99.90;;;;;;5081983;28;20032;-71
2022/08/18 01:05:51;;;;;;;7.85;5.20;;;15.90;99.90;;;;;;5091482;28;20035;-68
2022/08/18 01:08:17;;;;;;;9.90;5.15;;;15.90;99.90;;;;;;5080467;28;20035;-70
2022/08/18 01:10:44;;;;;;;8.95;5.93;;;15.90;99.90;;;;;;5084821;28;20048;-70
2022/08/18 01:13:10;;;;;;;10.02;5.72;;;16.00;99.90;;;;;;5089052;28;20563;-70
2022/08/18 01:15:37;;;;;;;9.07;5.13;;;16.00;99.90;;;;;;5078298;28;20032;-69
2022/08/18 01:23:49;;;;;;;5.55;4.00;;;16.00;99.90;;;;;;5077339;28;20089;-69
2022/08/18 01:26:17;;;;;;;6.40;3.42;;;16.10;99.90;;;;;;5088346;28;20139;-70
2022/08/18 01:28:45;;;;;;;4.38;3.03;;;16.10;99.90;;;;;;5084936;28;20495;-68
2022/08/18 01:31:28;;;;;;;6.03;4.38;;;16.00;99.90;;;;;;5080461;28;20052;-67
2022/08/18 01:33:58;;;;;;;8.10;5.45;;;16.00;99.90;;;;;;5091147;28;20396;-71
2022/08/18 01:36:23;;;;;;;5.72;4.38;;;15.70;99.90;;;;;;5082088;28;20119;-70
2022/08/18 01:38:52;;;;;;;8.07;4.65;;;15.60;99.90;;;;;;5082111;28;20123;-71
2022/08/18 01:41:20;;;;;;;5.10;4.07;;;15.60;99.90;;;;;;5078357;28;20044;-71
2022/08/18 01:43:47;;;;;;;6.90;3.30;;;15.50;99.90;;;;;;5091089;28;20040;-70
2022/08/18 01:46:18;;;;;;;4.70;3.03;;;15.60;99.90;;;;;;5077480;28;20132;-67
2022/08/18 01:48:45;;;;;;;7.85;3.42;;;15.70;99.90;;;;;;5069589;28;20049;-71
2022/08/18 01:51:12;;;;;;;4.82;3.00;;;15.70;99.90;;;;;;5078986;28;20474;-71
2022/08/18 01:53:38;;;;;;;3.60;2.92;;;15.80;99.90;;;;;;5076194;28;20036;-70
2022/08/18 01:56:05;;;;;;;3.67;3.08;;;15.90;99.90;;;;;;5089217;28;20043;-71
2022/08/18 01:58:32;;;;;;;3.38;2.90;;;15.90;99.90;;;;;;5081936;28;20044;-71
2022/08/18 02:01:00;;;;;;;3.92;2.30;;;16.00;99.90;;;;;;5081611;28;20044;-70
2022/08/18 02:03:39;;;;;;;2.83;2.00;;;16.00;99.90;;;;;;5088783;28;20394;-70
2022/08/18 02:06:10;;;;;;;3.33;2.35;;;16.10;99.90;;;;;;5063454;28;20513;-71
2022/08/18 02:08:37;;;;;;;5.20;2.97;;;16.20;99.90;;;;;;5083513;28;20048;-70
2022/08/18 02:11:03;;;;;;;8.50;2.95;;;16.10;99.90;;;;;;5085394;28;20044;-70
2022/08/18 02:13:30;;;;;;;7.13;3.35;;;15.80;99.90;;;;;;5075830;28;20050;-70
2022/08/18 02:15:56;;;;;;;6.50;2.40;;;15.50;99.90;;;;;;5089939;28;20040;-71
2022/08/18 02:18:27;;;;;;;3.70;2.50;;;15.40;99.90;;;;;;5080873;28;20044;-71
2022/08/18 02:20:58;;;;;;;3.45;2.40;;;15.40;99.90;;;;;;5082182;28;20048;-71
2022/08/18 02:23:24;;;;;;;;;;;15.40;99.90;;;;;;5089603;28;20522;-70
2022/08/18 02:25:50;;;;;;;3.13;1.70;;;15.60;99.90;;;;;;5073605;28;19991;-71
2022/08/18 02:28:17;;;;;;;2.78;1.85;;;;;;;;;;5086402;28;20435;-71
2022/08/18 02:30:43;;;;;;;5.15;2.00;;;16.20;99.90;;;;;;5082336;28;20495;-70
2022/08/18 02:33:10;;;;;;;3.67;2.33;;;16.20;99.90;;;;;;5079737;28;20036;-67
2022/08/18 02:35:36;;;;;;;3.60;2.42;;;16.00;99.90;;;;;;5090235;28;20076;-70
2022/08/18 02:38:05;;;;;;;5.75;2.70;;;16.00;99.90;;;;;;5076748;28;20036;-71
2022/08/18 02:40:32;;;;;;;3.97;2.40;;;15.70;99.90;;;;;;5083454;28;20040;-70
2022/08/18 02:43:04;;;;;;;2.38;2.03;;;15.50;99.90;;;;;;5085705;28;20522;-70
2022/08/18 02:45:29;;;;;;;4.78;2.67;;;15.50;99.90;;;;;;5076615;28;20111;-70
2022/08/18 02:47:56;;;;;;;3.08;1.98;;;15.60;99.90;;;;;;5089731;28;20132;-70
2022/08/18 02:50:22;;;;;;;4.55;2.38;;;15.80;99.90;;;;;;5078020;28;20050;-70
2022/08/18 02:52:48;;;;;;;4.57;2.55;;;15.60;99.90;;;;;;5080356;28;20072;-70
2022/08/18 02:55:14;;;;;;;2.63;2.33;;;15.20;99.90;;;;;;5086776;28;20040;-70
2022/08/18 02:57:46;;;;;;;2.90;2.22;;;15.00;99.90;;;;;;5076333;28;20028;-67
2022/08/18 03:00:15;;;;;;;2.60;1.85;;;15.00;99.90;;;;;;5087005;28;20051;-69
2022/08/18 03:02:52;;;;;;;3.70;2.92;;;15.10;99.90;;;;;;5082709;28;20062;-69
2022/08/18 03:05:18;;;;;;;3.92;2.15;;;15.20;99.90;;;;;;5076511;28;20044;-70
2022/08/18 03:07:45;;;;;;;4.40;1.92;;;15.10;99.90;;;;;;5079620;28;20148;-70
2022/08/18 03:10:13;;;;;;;2.53;2.10;;;15.20;99.90;;;;;;5085781;28;20056;-70
2022/08/18 03:12:42;;;;;;;2.38;2.05;;;15.30;99.90;;;;;;5082275;28;20053;-69
2022/08/18 03:15:08;;;;;;;3.55;2.00;;;15.40;99.90;;;;;;5077568;28;20101;-69
2022/08/18 03:17:36;;;;;;;2.38;1.70;;;15.50;99.90;;;;;;5087403;28;20043;-68
2022/08/18 03:20:03;;;;;;;4.75;2.30;;;15.60;99.90;;;;;;5076533;28;20051;-69
2022/08/18 03:22:29;;;;;;;3.22;1.80;;;15.60;99.90;;;;;;5084640;28;20048;-68
2022/08/18 03:24:55;;;;;;;2.60;2.10;;;15.70;99.90;;;;;;5072810;28;20043;-70
2022/08/18 03:27:20;;;;;;;2.75;2.15;;;15.60;99.90;;;;;;5088052;28;20142;-70
2022/08/18 03:29:46;;;;;;;2.80;2.00;;;15.80;99.90;;;;;;5075588;28;20456;-70
2022/08/18 03:32:12;;;;;;;2.10;1.67;;;15.80;99.90;;;;;;5083263;28;20045;-70
2022/08/18 03:34:38;;;;;;;2.67;1.80;;;15.80;99.90;;;;;;5081169;28;20028;-70
2022/08/18 03:37:04;;;;;;;2.15;1.80;;;15.70;99.90;;;;;;5078272;28;20044;-70
2022/08/18 03:39:30;;;;;;;1.85;1.73;;;15.70;99.90;;;;;;5089162;28;20043;-70
2022/08/18 03:41:56;;;;;;;2.65;1.98;;;15.60;99.90;;;;;;5076118;28;20055;-69
2022/08/18 03:44:22;;;;;;;3.88;2.25;;;15.60;99.90;;;;;;5084032;28;20037;-70
2022/08/18 03:46:49;;;;;;;3.25;2.05;;;15.60;99.90;;;;;;5083572;28;20494;-70
2022/08/18 03:49:17;;;;;;;2.78;2.15;;;15.70;99.90;;;;;;5077578;28;20134;-70
2022/08/18 03:51:45;;;;;;;3.65;2.17;;;15.50;99.90;;;;;;5089158;28;20040;-70
2022/08/18 03:54:12;;;;;;;3.20;2.30;;;15.50;99.90;;;;;;5078038;28;20051;-67
2022/08/18 03:56:39;;;;;;;3.60;2.22;;;15.40;99.90;;;;;;5080890;28;20037;-69
2022/08/18 03:59:09;;;;;;;3.10;2.42;;;15.40;99.90;;;;;;5081482;28;20036;-69
2022/08/18 04:01:39;;;;;;;2.57;1.80;;;15.50;99.90;;;;;;5073058;28;20048;-67
2022/08/18 04:04:07;;;;;;;3.63;1.67;;;15.70;99.90;;;;;;5084993;28;20275;-69
2022/08/18 04:06:38;;;;;;;2.58;1.90;;;15.80;99.90;;;;;;5080411;28;20032;-70
2022/08/18 04:09:07;;;;;;;2.17;1.88;;;16.00;99.90;;;;;;5077255;28;20040;-66
2022/08/18 04:11:36;;;;;;;2.05;1.52;;;15.90;99.90;;;;;;5087620;28;20075;-70
2022/08/18 04:14:02;;;;;;;2.45;1.75;;;15.90;99.90;;;;;;5075598;28;20051;-69
2022/08/18 04:16:37;;;;;;;8.32;2.28;;;16.00;99.90;;;;;;5076367;28;20550;-66
2022/08/18 04:19:03;;;;;;;3.20;2.47;;;15.90;99.90;;;;;;5084103;28;20043;-70
2022/08/18 04:21:33;;;;;;;3.60;2.70;;;15.60;99.90;;;;;;5074524;28;20037;-70
2022/08/18 04:24:04;;;;;;;3.45;2.80;;;15.40;99.90;;;;;;5080209;28;20031;-70
2022/08/18 04:26:41;;;;;;;2.85;2.17;;;15.30;99.90;;;;;;5085456;28;20040;-70
2022/08/18 04:29:08;;;;;;;3.05;1.92;;;15.40;99.90;;;;;;5087080;28;20075;-69
2022/08/18 04:31:34;;;;;;;2.58;1.98;;;15.10;99.90;;;;;;5078202;28;20040;-69
2022/08/18 04:34:01;;;;;;;2.38;1.77;;;15.00;99.90;;;;;;5090835;28;20059;-70
2022/08/18 04:36:29;;;;;;;5.38;1.50;;;14.80;99.90;;;;;;5082328;28;20044;-70
2022/08/18 04:38:55;;;;;;;3.83;2.05;;;14.80;99.90;;;;;;5083964;28;20495;-69
2022/08/18 04:41:26;;;;;;;3.00;1.95;;;14.90;99.90;;;;;;5090891;28;20040;-70
2022/08/18 04:43:58;;;;;;;;;;;15.10;99.90;;;;;;5079173;28;20457;-70
2022/08/18 04:46:29;;;;;;;3.60;1.77;;;15.20;99.90;;;;;;5086020;28;19919;-70
2022/08/18 04:49:00;;;;;;;3.33;2.40;;;15.30;99.90;;;;;;5081257;28;20033;-70
2022/08/18 04:51:28;;;;;;;2.55;1.88;;;15.20;99.90;;;;;;5075575;28;20056;-70
2022/08/18 04:53:55;;;;;;;2.88;2.10;;;15.30;99.90;;;;;;5080820;28;20064;-69
2022/08/18 04:56:28;;;;;;;6.80;2.60;;;15.40;99.90;;;;;;5095687;28;20106;-68
2022/08/18 04:59:05;;;;;;;4.90;2.40;;;15.50;99.90;;;;;;5095483;28;20032;-70
2022/08/18 05:01:39;;;;;;;6.22;2.50;;;15.40;99.90;;;;;;5095405;28;20047;-70
2022/08/18 05:04:06;;;;;;;4.65;2.78;;;15.40;99.90;;;;;;5095282;28;20492;-70
2022/08/18 05:06:32;;;;;;;3.47;2.50;;;15.30;99.90;;;;;;5095044;28;20050;-70
2022/08/18 05:09:01;;;;;;;3.75;2.45;;;15.40;99.90;;;;;;5095111;28;20036;-70
2022/08/18 05:11:32;;;;;;;3.95;2.85;;;15.40;99.90;;;;;;5094949;28;20044;-70
2022/08/18 05:13:59;;;;;;;4.50;2.70;;;15.40;99.90;;;;;;5095289;28;20036;-70
2022/08/18 05:16:26;;;;;;;4.40;2.70;;;15.30;99.90;;;;;;5082830;28;20044;-70
2022/08/18 05:18:54;;;;;;;3.22;2.53;;;15.30;99.90;;;;;;5073682;28;20089;-69
2022/08/18 05:21:21;;;;;;;4.75;2.83;;;15.40;99.90;;;;;;5073592;28;20376;-68
2022/08/18 05:23:49;;;;;;;8.85;3.78;;;15.30;99.90;;;;;;5074650;28;20044;-70
2022/08/18 05:26:16;;;;;;;5.22;3.47;;;15.30;99.90;;;;;;5074765;28;20546;-70
2022/08/18 05:28:43;;;;;;;5.05;2.90;;;15.30;99.90;;;;;;5074859;28;20035;-70
2022/08/18 05:31:14;;;;;;;5.57;3.08;;;15.20;99.90;;;;;;5074614;28;20062;-68
2022/08/18 05:33:40;;;;;;;4.68;3.15;;;15.10;99.90;;;;;;5073017;28;20090;-67
2022/08/18 05:36:21;;;;;;;4.05;3.08;;;15.10;99.90;;;;;;5073134;28;20040;-70
2022/08/18 05:38:56;;;;;;;7.50;4.18;;;15.20;99.90;;;;;;5073836;28;20037;-70
2022/08/18 05:41:32;;;;;;;10.80;4.05;;;15.20;99.90;;;;;;5073077;28;20127;-70
2022/08/18 05:43:58;;;;;;;5.97;4.38;;;15.30;99.90;;;;;;5088142;28;20032;-70
2022/08/18 05:46:37;;;;;;;8.63;4.53;;;15.40;99.90;;;;;;5077481;28;20569;-70
2022/08/18 05:49:03;;;;;;;6.72;4.25;;;15.40;99.90;;;;;;5092894;28;20068;-71
2022/08/18 05:51:44;;;;;;;6.90;4.55;;;15.50;99.90;;;;;;5078816;28;20044;-70
2022/08/18 05:57:01;;;;;;;5.15;4.13;;;15.80;99.90;;;;;;5053349;28;20506;-69
2022/08/18 05:59:33;;;;;;;4.43;3.50;;;16.10;99.90;;;;;;5053860;28;20044;-70
2022/08/18 06:02:17;;;;;;;4.72;3.65;;;16.60;99.90;;;;;;5054272;28;20123;-70
2022/08/18 06:04:51;;;;;;;3.50;3.00;;;16.90;99.90;;;;;;5054145;28;20120;-69
2022/08/18 06:07:33;;;;;;;6.18;3.20;;;17.00;99.90;;;;;;5059775;28;20032;-70
2022/08/18 06:09:59;;;;;;;4.60;2.80;;;17.00;99.90;;;;;;5073975;28;20442;-70
2022/08/18 06:12:40;;;;;;;4.47;2.83;;;16.90;99.90;;;;;;5072102;28;20040;-69
2022/08/18 06:15:23;;;;;;;5.07;2.35;;;17.10;99.90;;;;;;5073986;28;20569;-69
2022/08/18 06:18:07;;;;;;;4.78;2.38;;;17.50;99.90;;;;;;5073703;28;20110;-69
2022/08/18 06:21:09;;;;;;;4.70;2.60;;;18.10;99.90;;;;;;5073824;28;20123;-70
2022/08/18 06:23:53;;;;;;;2.95;2.20;;;18.10;99.90;;;;;;5073478;28;20044;-70
2022/08/18 06:26:23;;;;;;;3.00;2.03;;;18.70;99.90;;;;;;5073368;28;20048;-69
2022/08/18 06:28:56;;;;;;;3.03;2.40;;;18.80;99.90;;;;;;5073749;28;20403;-70
2022/08/18 06:31:28;;;;;;;4.65;3.28;;;18.60;99.90;;;;;;5073385;28;20052;-70
2022/08/18 06:34:25;;;;;;;4.97;3.10;;;18.10;99.90;;;;;;5072179;28;20040;-69
2022/08/18 06:37:08;;;;;;;4.57;3.35;;;17.70;99.90;;;;;;5072096;28;20101;-70
2022/08/18 06:39:36;;;;;;;4.40;3.53;;;17.60;99.90;;;;;;5073491;28;20189;-69
2022/08/18 06:42:04;;;;;;;4.47;3.47;;;17.70;99.90;;;;;;5073091;28;20059;-70
2022/08/18 06:44:37;;;;;;;5.20;3.35;;;18.10;99.90;;;;;;5072823;28;20070;-70
2022/08/18 06:47:19;;;;;;;4.53;2.92;;;18.10;99.90;;;;;;5073026;28;20037;-69
2022/08/18 06:49:50;;;;;;;4.63;2.70;;;17.70;99.90;;;;;;5073000;28;20064;-69
2022/08/18 06:52:21;;;;;;;4.10;3.00;;;18.00;99.90;;;;;;5073330;28;20032;-70
2022/08/18 06:54:48;;;;;;;4.38;3.00;;;18.10;99.90;;;;;;5073202;28;20058;-70
2022/08/18 06:57:52;;;;;;;4.00;3.10;;;18.10;99.90;;;;;;5073103;28;20109;-69
2022/08/18 07:00:17;;;;;;;5.43;3.65;;;17.70;99.90;;;;;;5060633;28;20117;-69
2022/08/18 07:02:51;;;;;;;4.50;3.30;;;17.70;99.90;;;;;;5072454;28;20076;-69
2022/08/18 07:05:26;;;;;;;4.35;3.45;;;17.60;99.90;;;;;;5072944;28;20127;-67
2022/08/18 07:08:16;;;;;;;4.50;2.60;;;17.70;99.90;;;;;;5072704;28;20056;-70
2022/08/18 07:10:50;;;;;;;5.23;3.17;;;;;;;;;;5072778;28;20045;-67
2022/08/18 07:13:26;;;;;;;7.18;2.97;;;18.10;99.90;;;;;;5072903;28;20118;-69
2022/08/18 07:15:54;;;;;;;5.18;2.45;;;18.40;99.90;;;;;;5072808;28;20043;-68
2022/08/18 07:18:23;;;;;;;7.03;2.97;;;18.70;99.90;;;;;;5071372;28;20037;-69
2022/08/18 07:21:00;;;;;;;4.68;2.53;;;18.80;99.90;;;;;;5072897;28;20086;-69
2022/08/18 07:23:32;;;;;;;2.65;2.33;;;19.10;99.90;;;;;;5072955;28;20064;-70
2022/08/18 07:26:11;;;;;;;2.47;2.10;;;19.20;99.90;;;;;;5072943;28;20055;-69
2022/08/18 07:28:49;;;;;;;2.33;1.92;;;19.40;99.90;;;;;;5072951;28;20036;-70
2022/08/18 07:31:36;;;;;;;2.58;2.35;;;19.80;99.90;;;;;;5072791;28;20049;-70
2022/08/18 07:34:07;;;;;;;4.28;2.60;;;19.90;99.90;;;;;;5072821;28;20032;-70
2022/08/18 07:36:46;;;;;;;3.05;2.50;;;20.10;99.90;;;;;;5072863;28;20044;-70
2022/08/18 07:39:49;;;;;;;4.25;2.80;;;20.20;99.90;;;;;;5072695;28;20043;-70
2022/08/18 07:42:30;;;;;;;3.80;2.58;;;20.30;99.90;;;;;;5067690;28;20138;-70
2022/08/18 07:45:14;;;;;;;3.65;2.70;;;20.40;99.90;;;;;;5071480;28;20033;-71
2022/08/18 07:47:56;;;;;;;2.92;2.40;;;20.50;99.90;;;;;;5072296;28;20056;-70
2022/08/18 07:50:24;;;;;;;3.10;2.08;;;20.10;99.90;;;;;;5072260;28;20053;-71
2022/08/18 07:53:21;;;;;;;5.95;2.55;;;20.10;99.90;;;;;;5072546;28;20048;-67
2022/08/18 07:55:54;;;;;;;3.88;2.63;;;20.30;99.90;;;;;;5071178;28;20041;-70
2022/08/18 07:58:50;;;;;;;3.78;2.83;;;20.40;99.90;;;;;;5076277;28;20128;-73
2022/08/18 08:01:38;;;;;;;3.58;2.75;;;20.80;99.90;;;;;;5068349;28;20044;-71
2022/08/18 08:04:13;;;;;;;4.40;2.63;;;21.00;99.90;;;;;;5076485;28;20037;-70
2022/08/18 08:06:44;;;;;;;5.22;2.22;;;20.90;99.90;;;;;;5075784;28;20037;-69
2022/08/18 08:09:37;;;;;;;4.60;2.58;;;21.20;99.90;;;;;;5075861;28;20099;-69
2022/08/18 08:12:16;;;;;;;3.95;2.70;;;21.40;99.90;;;;;;5074642;28;20044;-69
2022/08/18 08:14:42;;;;;;;2.85;2.40;;;21.30;99.90;;;;;;5075851;28;20047;-69
2022/08/18 08:17:56;;;;;;;3.83;2.78;;;21.50;99.90;;;;;;5075672;28;20040;-68
2022/08/18 08:20:50;;;;;;;3.90;3.00;;;21.80;99.90;;;;;;5071712;28;20048;-68
2022/08/18 08:23:22;;;;;;;4.07;2.70;;;21.90;99.90;;;;;;5074071;28;20098;-69
2022/08/18 08:26:01;;;;;;;6.63;2.40;;;22.00;99.90;;;;;;5074093;28;20036;-67
2022/08/18 08:28:45;;;;;;;6.40;2.55;;;22.00;99.90;;;;;;5074173;28;20052;-67
2022/08/18 08:31:38;;;;;;;4.40;2.58;;;21.90;99.90;;;;;;5073859;28;20049;-68
2022/08/18 08:34:21;;;;;;;3.88;2.97;;;22.30;99.90;;;;;;5074326;28;20415;-67
2022/08/18 08:36:52;;;;;;;4.63;3.17;;;22.20;99.90;;;;;;5074510;28;20039;-67
2022/08/18 08:39:30;;;;;;;4.45;3.47;;;22.00;99.90;;;;;;5074625;28;20076;-67
2022/08/18 08:42:04;;;;;;;4.15;3.40;;;22.20;99.90;;;;;;5075589;28;20044;-67
2022/08/18 08:44:48;;;;;;;3.47;2.97;;;22.00;99.90;;;;;;5075772;28;20508;-67
2022/08/18 08:47:24;;;;;;;3.70;2.95;;;21.80;99.90;;;;;;5075451;28;20032;-65
2022/08/18 08:49:53;;;;;;;4.25;3.53;;;21.90;99.90;;;;;;5075293;28;20093;-65
2022/08/18 08:52:36;;;;;;;4.95;3.08;;;22.40;99.90;;;;;;5075100;28;20052;-65
2022/08/18 08:55:11;;;;;;;3.85;2.75;;;21.90;99.90;;;;;;5074971;28;20040;-66
2022/08/18 08:58:04;;;;;;;5.53;2.88;;;22.10;99.90;;;;;;5074955;28;20068;-66
2022/08/18 09:00:30;;;;;;;3.70;2.88;;;22.50;99.90;;;;;;5075348;28;20047;-66
2022/08/18 09:03:07;;;;;;;3.15;2.50;;;22.40;99.90;;;;;;5075277;28;20051;-66
2022/08/18 09:05:59;;;;;;;5.57;2.83;;;22.20;99.90;;;;;;5075488;28;20040;-66
2022/08/18 09:08:24;;;;;;;2.95;2.65;;;22.00;99.90;;;;;;5074695;28;20496;-67
2022/08/18 09:11:12;;;;;;;4.82;3.22;;;22.10;99.90;;;;;;5073962;28;20059;-65
2022/08/18 09:13:54;;;;;;;4.38;3.15;;;22.20;99.90;;;;;;5073986;28;20082;-65
2022/08/18 09:16:34;;;;;;;5.60;3.30;;;22.20;99.90;;;;;;5072737;28;20454;-65
2022/08/18 09:19:20;;;;;;;3.95;2.80;;;22.10;99.90;;;;;;5073252;28;20111;-66
2022/08/18 09:22:06;;;;;;;3.75;2.60;;;22.20;99.90;;;;;;5069493;28;20136;-65
2022/08/18 09:24:44;;;;;;;4.05;2.83;;;22.00;99.90;;;;;;5074302;28;20101;-66
2022/08/18 09:27:30;;;;;;;4.75;3.10;;;22.00;99.90;;;;;;5075576;28;20044;-66
2022/08/18 09:30:01;;;;;;;6.00;2.55;;;21.90;99.90;;;;;;5075106;28;20404;-66
2022/08/18 09:32:27;;;;;;;5.68;2.45;;;21.70;99.90;;;;;;5075646;28;20438;-67
2022/08/18 09:35:04;;;;;;;3.47;2.25;;;21.50;99.90;;;;;;5075583;28;20036;-66
2022/08/18 09:44:09;;;;;;;2.95;2.22;;;21.60;99.90;;;;;;5075442;28;20055;-66
2022/08/18 09:46:57;;;;;;;3.97;2.67;;;21.10;99.90;;;;;;5075159;28;20071;-66
2022/08/18 09:49:23;;;;;;;5.47;2.38;;;21.00;99.90;;;;;;5074947;28;20115;-68
2022/08/18 09:51:51;;;;;;;2.67;1.90;;;21.30;99.90;;;;;;5075158;28;20044;-67
2022/08/18 09:54:20;;;;;;;3.42;2.38;;;21.10;99.90;;;;;;5073630;28;20043;-67
2022/08/18 09:56:48;;;;;;;5.03;2.55;;;21.30;99.90;;;;;;5075062;28;20503;-66
2022/08/18 09:59:32;;;;;;;3.85;2.70;;;21.20;99.90;;;;;;5075199;28;20127;-67
2022/08/18 10:02:02;;;;;;;2.83;2.40;;;21.40;99.90;;;;;;5075053;28;20048;-67
2022/08/18 10:04:47;;;;;;;4.43;2.83;;;21.50;99.90;;;;;;5075039;28;20032;-66
2022/08/18 10:07:32;;;;;;;4.15;2.67;;;21.90;99.90;;;;;;5074716;28;20561;-66
2022/08/18 10:10:06;;;;;;;5.68;3.00;;;22.00;99.90;;;;;;5074617;28;20044;-66
2022/08/18 10:13:00;;;;;;;5.50;2.20;;;21.90;99.90;;;;;;5074893;28;20032;-65
2022/08/18 10:15:51;;;;;;;5.68;3.63;;;22.00;99.90;;;;;;5074800;28;20044;-66
2022/08/18 10:18:39;;;;;;;;;;;22.10;99.90;;;;;;5075101;28;20048;-66
2022/08/18 10:21:19;;;;;;;8.13;2.80;;;22.00;99.90;;;;;;5074066;28;19909;-65
2022/08/18 10:23:59;;;;;;;2.78;2.40;;;22.20;99.90;;;;;;5072909;28;20047;-66
2022/08/18 10:26:31;;;;;;;3.92;2.30;;;22.60;99.90;;;;;;5073980;28;20055;-67
2022/08/18 10:29:05;;;;;;;4.07;2.63;;;22.40;99.90;;;;;;5071739;28;20074;-67
2022/08/18 10:31:52;;;;;;;3.20;2.65;;;22.60;99.90;;;;;;5073567;28;20049;-67
2022/08/18 10:34:37;;;;;;;3.75;2.35;;;22.80;99.90;;;;;;5069886;28;20044;-67
2022/08/18 10:37:41;;;;;;;5.03;2.03;;;23.30;99.90;;;;;;5073990;28;20036;-67
2022/08/18 10:40:11;;;;;;;6.22;2.42;;;23.20;99.90;;;;;;5058962;28;20102;-67
2022/08/18 10:43:02;;;;;;;2.40;2.20;;;23.20;99.90;;;;;;5072323;28;20037;-67
2022/08/18 10:45:34;;;;;;;2.95;2.40;;;22.90;99.90;;;;;;5072056;28;20558;-66
2022/08/18 10:48:19;;;;;;;3.03;2.47;;;22.80;99.90;;;;;;5072675;28;20477;-66
2022/08/18 10:51:23;;;;;;;3.13;2.30;;;22.70;99.90;;;;;;5071838;28;20135;-66
2022/08/18 10:54:09;;;;;;;4.18;2.50;;;22.50;99.90;;;;;;5064860;28;20424;-65
2022/08/18 10:56:56;;;;;;;3.03;2.55;;;22.60;99.90;;;;;;5070527;28;20372;-67
2022/08/18 10:59:50;;;;;;;6.32;2.95;;;22.80;99.90;;;;;;5071485;28;20074;-67
2022/08/18 11:02:52;;;;;;;4.25;2.08;;;22.80;99.90;;;;;;5073790;28;20039;-67
2022/08/18 11:05:23;;;;;;;4.28;2.50;;;23.10;99.90;;;;;;5072297;28;20084;-66
2022/08/18 11:08:00;;;;;;;2.88;2.30;;;23.00;99.90;;;;;;5072310;28;20040;-67
2022/08/18 11:10:47;;;;;;;4.88;2.80;;;23.00;99.90;;;;;;5073594;28;20058;-66
2022/08/18 11:13:34;;;;;;;4.15;2.38;;;23.00;99.90;;;;;;5070106;28;20051;-66
2022/08/18 11:16:21;;;;;;;3.78;2.40;;;23.00;99.90;;;;;;5070380;28;20129;-66
2022/08/18 11:18:50;;;;;;;5.28;2.70;;;22.90;99.90;;;;;;5071313;28;20423;-66
2022/08/18 11:21:38;;;;;;;4.28;2.78;;;22.90;99.90;;;;;;5088174;28;20051;-66
2022/08/18 11:24:23;;;;;;;3.28;2.22;;;22.80;99.90;;;;;;5060941;28;20036;-65
2022/08/18 11:27:04;;;;;;;3.95;2.35;;;22.70;99.90;;;;;;5070727;28;20044;-65
2022/08/18 11:29:38;;;;;;;3.53;2.35;;;22.70;99.90;;;;;;5071429;28;20086;-66
2022/08/18 11:32:28;;;;;;;2.70;2.10;;;22.70;99.90;;;;;;5081145;28;20048;-66
2022/08/18 11:34:57;;;;;;;3.03;2.15;;;22.80;99.90;;;;;;5083618;28;20050;-66
2022/08/18 11:37:35;;;;;;;2.85;2.28;;;22.70;99.90;;;;;;5088861;28;20617;-70
2022/08/18 11:40:05;;;;;;;3.35;2.17;;;22.40;99.90;;;;;;5078076;28;20044;-67
2022/08/18 11:42:40;;;;;;;2.47;2.08;;;22.50;99.90;;;;;;5076231;28;20131;-67
2022/08/18 11:45:16;;;;;;;3.08;2.20;;;22.20;99.90;;;;;;5077548;28;20369;-67
2022/08/18 11:48:01;;;;;;;4.03;2.28;;;22.30;99.90;;;;;;5077618;28;20415;-68
2022/08/18 11:50:29;;;;;;;3.90;2.20;;;22.20;99.90;;;;;;5077175;28;20037;-68
2022/08/18 11:52:56;;;;;;;3.70;2.25;;;22.30;99.90;;;;;;5077170;28;20037;-67
2022/08/18 11:55:34;;;;;;;3.70;2.55;;;22.10;99.90;;;;;;5075891;28;20040;-66
2022/08/18 11:58:01;;;;;;;3.10;2.30;;;22.20;99.90;;;;;;5075835;28;20070;-66
2022/08/18 12:00:46;;;;;;;4.60;2.58;;;22.30;99.90;;;;;;5076793;28;20514;-66
2022/08/18 12:03:30;;;;;;;3.05;2.45;;;22.30;99.90;;;;;;5076838;28;20032;-65
2022/08/18 12:06:15;;;;;;;3.22;2.30;;;22.30;99.90;;;;;;5075087;28;20442;-65
2022/08/18 12:08:52;;;;;;;4.43;2.30;;;22.40;99.90;;;;;;5077032;28;20123;-66
2022/08/18 12:11:25;;;;;;;2.72;2.17;;;22.50;99.90;;;;;;5073929;28;20048;-66
2022/08/18 12:13:59;;;;;;;3.95;2.20;;;;;;;;;;5074893;28;20052;-65
2022/08/18 12:16:33;;;;;;;5.13;2.67;;;22.70;99.90;;;;;;5075271;28;20103;-65
2022/08/18 12:18:59;;;;;;;4.82;2.53;;;22.60;99.90;;;;;;5073743;28;20044;-65
2022/08/18 12:21:25;;;;;;;2.25;1.92;;;22.60;99.90;;;;;;5071358;28;20040;-65
2022/08/18 12:23:51;;;;;;;2.42;2.13;;;22.60;99.90;;;;;;5073852;28;20040;-66
2022/08/18 12:26:19;;;;;;;2.97;1.98;;;22.70;99.90;;;;;;5070997;28;20044;-66
2022/08/18 12:28:48;;;;;;;2.28;1.98;;;22.70;99.90;;;;;;5062337;28;20127;-66
2022/08/18 12:31:13;;;;;;;3.47;1.73;;;22.70;99.90;;;;;;5073018;28;20132;-66
2022/08/18 12:33:39;;;;;;;2.50;2.30;;;22.70;99.90;;;;;;5073475;28;20033;-67
2022/08/18 12:36:05;;;;;;;2.75;1.95;;;22.70;99.90;;;;;;5074418;28;20041;-67
2022/08/18 12:38:32;;;;;;;3.53;2.35;;;22.80;99.90;;;;;;5073691;28;20555;-65
2022/08/18 12:40:58;;;;;;;2.60;2.20;;;23.00;99.90;;;;;;5071602;28;20072;-65
2022/08/18 12:43:24;;;;;;;2.83;2.28;;;22.90;99.90;;;;;;5072698;28;20068;-66
2022/08/18 12:45:51;;;;;;;2.90;2.35;;;22.30;99.90;;;;;;5072975;28;20094;-68
2022/08/18 12:48:16;;;;;;;4.75;2.20;;;22.30;99.90;;;;;;5072687;28;20098;-67
2022/08/18 12:50:44;;;;;;;2.55;2.00;;;22.00;99.90;;;;;;5066837;28;20438;-67
2022/08/18 12:53:13;;;;;;;3.50;1.98;;;22.30;99.90;;;;;;5067914;28;20055;-65
2022/08/18 12:55:42;;;;;;;2.97;2.20;;;22.50;99.90;;;;;;5071701;28;20045;-67
2022/08/18 12:58:08;;;;;;;2.72;1.98;;;22.40;99.90;;;;;;5071807;28;20032;-66
2022/08/18 13:00:35;;;;;;;2.40;2.05;;;22.30;99.90;;;;;;5073144;28;20089;-65
2022/08/18 13:03:01;;;;;;;2.90;2.13;;;22.10;99.90;;;;;;5073113;28;20040;-65
2022/08/18 13:05:27;;;;;;;2.08;1.88;;;22.10;99.90;;;;;;5076887;28;20039;-67
2022/08/18 13:08:00;;;;;;;2.85;1.90;;;22.00;99.90;;;;;;5080420;28;20041;-68
2022/08/18 13:10:26;;;;;;;2.47;2.22;;;21.90;99.90;;;;;;5072577;28;20044;-67
2022/08/18 13:12:52;;;;;;;2.53;1.83;;;21.90;99.90;;;;;;5072671;28;20036;-70
2022/08/18 13:15:18;;;;;;;2.83;1.73;;;21.90;99.90;;;;;;5071506;28;20048;-69
2022/08/18 13:17:44;;;;;;;1.73;1.60;;;22.10;99.90;;;;;;5072581;28;20031;-70
2022/08/18 13:20:13;;;;;;;5.10;1.80;;;22.50;99.90;;;;;;5072099;28;20059;-70
2022/08/18 13:22:40;;;;;;;1.70;1.40;;;22.50;99.90;;;;;;5070197;28;20562;-70
2022/08/18 13:25:13;;;;;;;4.15;2.13;;;22.50;99.90;;;;;;5071706;28;20091;-69
2022/08/18 13:27:39;;;;;;;2.10;1.48;;;22.40;99.90;;;;;;5054441;28;20526;-69
2022/08/18 13:30:11;;;;;;;2.72;1.70;;;22.50;99.90;;;;;;5070479;28;20569;-68
2022/08/18 13:32:39;;;;;;;2.13;1.42;;;22.60;99.90;;;;;;5071015;28;20075;-69
2022/08/18 13:35:08;;;;;;;1.65;1.40;;;22.60;99.90;;;;;;5071987;28;20123;-69